sensor_id;sensor_type;location;lat;lon;timestamp;P1;durP1;ratioP1;P2;durP2;ratioP2
35606;SDS011;21729;58.392;15.656;2023-07-16T00:01:55;4.85;;;2.30;;
35606;SDS011;21729;58.392;15.656;2023-07-16T00:04:22;2.30;;;2.00;;
35606;SDS011;21729;58.392;15.656;2023-07-16T00:06:49;4.95;;;2.53;;
35606;SDS011;21729;58.392;15.656;2023-07-16T00:09:17;3.95;;;2.47;;
35606;SDS011;21729;58.392;15.656;2023-07-16T00:11:44;3.40;;;2.40;;
35606;SDS011;21729;58.392;15.656;2023-07-16T00:14:11;4.53;;;2.50;;
35606;SDS011;21729;58.392;15.656;2023-07-16T00:16:38;3.13;;;2.55;;
35606;SDS011;21729;58.392;15.656;2023-07-16T00:19:07;3.05;;;2.60;;
35606;SDS011;21729;58.392;15.656;2023-07-16T00:21:36;3.10;;;2.40;;
35606;SDS011;21729;58.392;15.656;2023-07-16T00:24:03;3.30;;;2.50;;
35606;SDS011;21729;58.392;15.656;2023-07-16T00:26:31;4.13;;;2.67;;
35606;SDS011;21729;58.392;15.656;2023-07-16T00:28:58;4.57;;;2.70;;
35606;SDS011;21729;58.392;15.656;2023-07-16T00:31:25;4.68;;;2.90;;
35606;SDS011;21729;58.392;15.656;2023-07-16T00:33:52;4.82;;;2.65;;
35606;SDS011;21729;58.392;15.656;2023-07-16T00:36:21;4.83;;;2.60;;
35606;SDS011;21729;58.392;15.656;2023-07-16T00:38:48;3.47;;;2.47;;
35606;SDS011;21729;58.392;15.656;2023-07-16T00:41:15;3.63;;;2.75;;
35606;SDS011;21729;58.392;15.656;2023-07-16T00:43:42;4.28;;;2.60;;
35606;SDS011;21729;58.392;15.656;2023-07-16T00:46:10;4.47;;;2.70;;
35606;SDS011;21729;58.392;15.656;2023-07-16T00:48:39;5.13;;;2.88;;
35606;SDS011;21729;58.392;15.656;2023-07-16T00:51:07;4.47;;;2.80;;
35606;SDS011;21729;58.392;15.656;2023-07-16T00:53:36;6.10;;;3.30;;
35606;SDS011;21729;58.392;15.656;2023-07-16T00:56:04;5.57;;;3.75;;
35606;SDS011;21729;58.392;15.656;2023-07-16T00:58:32;4.88;;;3.28;;
35606;SDS011;21729;58.392;15.656;2023-07-16T01:00:59;5.13;;;3.58;;
35606;SDS011;21729;58.392;15.656;2023-07-16T01:03:26;7.45;;;4.10;;
35606;SDS011;21729;58.392;15.656;2023-07-16T01:05:55;6.38;;;4.13;;
35606;SDS011;21729;58.392;15.656;2023-07-16T01:08:31;6.40;;;4.32;;
35606;SDS011;21729;58.392;15.656;2023-07-16T01:11:02;7.45;;;4.30;;
35606;SDS011;21729;58.392;15.656;2023-07-16T01:13:30;6.00;;;4.15;;
35606;SDS011;21729;58.392;15.656;2023-07-16T01:15:58;6.72;;;4.45;;
35606;SDS011;21729;58.392;15.656;2023-07-16T01:18:26;7.82;;;4.43;;
35606;SDS011;21729;58.392;15.656;2023-07-16T01:20:53;5.68;;;4.22;;
35606;SDS011;21729;58.392;15.656;2023-07-16T01:32:08;6.27;;;4.30;;
35606;SDS011;21729;58.392;15.656;2023-07-16T01:34:38;4.38;;;3.97;;
35606;SDS011;21729;58.392;15.656;2023-07-16T01:37:06;6.53;;;4.53;;
35606;SDS011;21729;58.392;15.656;2023-07-16T01:39:33;5.35;;;4.20;;
35606;SDS011;21729;58.392;15.656;2023-07-16T01:42:00;5.50;;;4.30;;
35606;SDS011;21729;58.392;15.656;2023-07-16T01:44:27;7.38;;;4.32;;
35606;SDS011;21729;58.392;15.656;2023-07-16T01:47:10;5.13;;;4.05;;
35606;SDS011;21729;58.392;15.656;2023-07-16T01:49:39;6.30;;;4.50;;
35606;SDS011;21729;58.392;15.656;2023-07-16T01:52:07;5.47;;;4.40;;
35606;SDS011;21729;58.392;15.656;2023-07-16T01:54:36;5.77;;;4.17;;
35606;SDS011;21729;58.392;15.656;2023-07-16T01:57:03;5.70;;;3.95;;
35606;SDS011;21729;58.392;15.656;2023-07-16T01:59:31;6.13;;;4.17;;
35606;SDS011;21729;58.392;15.656;2023-07-16T02:01:58;6.83;;;4.00;;
35606;SDS011;21729;58.392;15.656;2023-07-16T02:04:27;5.97;;;4.10;;
35606;SDS011;21729;58.392;15.656;2023-07-16T02:06:54;7.80;;;4.07;;
35606;SDS011;21729;58.392;15.656;2023-07-16T02:09:21;5.75;;;4.00;;
35606;SDS011;21729;58.392;15.656;2023-07-16T02:11:50;5.38;;;3.92;;
35606;SDS011;21729;58.392;15.656;2023-07-16T02:14:17;5.95;;;4.07;;
35606;SDS011;21729;58.392;15.656;2023-07-16T02:16:44;5.90;;;4.17;;
35606;SDS011;21729;58.392;15.656;2023-07-16T02:19:11;6.32;;;4.45;;
35606;SDS011;21729;58.392;15.656;2023-07-16T02:21:39;6.82;;;4.10;;
35606;SDS011;21729;58.392;15.656;2023-07-16T02:24:07;5.60;;;4.17;;
35606;SDS011;21729;58.392;15.656;2023-07-16T02:26:34;6.33;;;4.23;;
35606;SDS011;21729;58.392;15.656;2023-07-16T02:29:01;6.60;;;4.30;;
35606;SDS011;21729;58.392;15.656;2023-07-16T02:31:28;7.03;;;4.07;;
35606;SDS011;21729;58.392;15.656;2023-07-16T02:33:55;6.05;;;4.05;;
35606;SDS011;21729;58.392;15.656;2023-07-16T02:36:22;5.57;;;4.28;;
35606;SDS011;21729;58.392;15.656;2023-07-16T02:38:50;5.53;;;4.40;;
35606;SDS011;21729;58.392;15.656;2023-07-16T02:41:17;6.10;;;4.30;;
35606;SDS011;21729;58.392;15.656;2023-07-16T02:43:44;5.18;;;4.43;;
35606;SDS011;21729;58.392;15.656;2023-07-16T02:46:25;5.05;;;4.38;;
35606;SDS011;21729;58.392;15.656;2023-07-16T02:48:52;7.18;;;4.63;;
35606;SDS011;21729;58.392;15.656;2023-07-16T02:51:19;7.50;;;4.70;;
35606;SDS011;21729;58.392;15.656;2023-07-16T02:53:46;5.65;;;4.35;;
35606;SDS011;21729;58.392;15.656;2023-07-16T02:56:15;6.30;;;4.32;;
35606;SDS011;21729;58.392;15.656;2023-07-16T02:58:42;6.55;;;4.20;;
35606;SDS011;21729;58.392;15.656;2023-07-16T03:01:10;5.83;;;4.40;;
35606;SDS011;21729;58.392;15.656;2023-07-16T03:03:37;5.57;;;4.55;;
35606;SDS011;21729;58.392;15.656;2023-07-16T03:06:04;6.43;;;4.50;;
35606;SDS011;21729;58.392;15.656;2023-07-16T03:08:31;5.35;;;4.40;;
35606;SDS011;21729;58.392;15.656;2023-07-16T03:10:58;5.93;;;4.35;;
35606;SDS011;21729;58.392;15.656;2023-07-16T03:13:27;7.75;;;4.35;;
35606;SDS011;21729;58.392;15.656;2023-07-16T03:15:54;6.80;;;4.70;;
35606;SDS011;21729;58.392;15.656;2023-07-16T03:18:21;6.80;;;4.57;;
35606;SDS011;21729;58.392;15.656;2023-07-16T03:20:48;6.40;;;4.25;;
35606;SDS011;21729;58.392;15.656;2023-07-16T03:23:15;4.97;;;4.10;;
35606;SDS011;21729;58.392;15.656;2023-07-16T03:25:42;7.30;;;4.38;;
35606;SDS011;21729;58.392;15.656;2023-07-16T03:28:11;7.20;;;4.33;;
35606;SDS011;21729;58.392;15.656;2023-07-16T03:30:39;5.43;;;3.90;;
35606;SDS011;21729;58.392;15.656;2023-07-16T03:33:06;5.53;;;4.40;;
35606;SDS011;21729;58.392;15.656;2023-07-16T03:35:33;7.07;;;4.30;;
35606;SDS011;21729;58.392;15.656;2023-07-16T03:38:00;5.20;;;4.38;;
35606;SDS011;21729;58.392;15.656;2023-07-16T03:40:27;6.53;;;4.57;;
35606;SDS011;21729;58.392;15.656;2023-07-16T03:42:55;5.72;;;4.20;;
35606;SDS011;21729;58.392;15.656;2023-07-16T03:45:22;6.13;;;4.43;;
35606;SDS011;21729;58.392;15.656;2023-07-16T03:47:51;6.07;;;4.63;;
35606;SDS011;21729;58.392;15.656;2023-07-16T03:50:18;6.30;;;4.47;;
35606;SDS011;21729;58.392;15.656;2023-07-16T03:52:46;5.13;;;4.60;;
35606;SDS011;21729;58.392;15.656;2023-07-16T03:55:14;5.63;;;4.40;;
35606;SDS011;21729;58.392;15.656;2023-07-16T03:57:41;6.95;;;4.50;;
35606;SDS011;21729;58.392;15.656;2023-07-16T04:00:09;5.88;;;4.63;;
35606;SDS011;21729;58.392;15.656;2023-07-16T04:02:36;6.63;;;4.53;;
35606;SDS011;21729;58.392;15.656;2023-07-16T04:05:05;5.80;;;4.30;;
35606;SDS011;21729;58.392;15.656;2023-07-16T04:07:33;6.20;;;4.47;;
35606;SDS011;21729;58.392;15.656;2023-07-16T04:10:01;6.22;;;4.53;;
35606;SDS011;21729;58.392;15.656;2023-07-16T04:12:28;9.27;;;4.68;;
35606;SDS011;21729;58.392;15.656;2023-07-16T04:14:55;7.22;;;4.60;;
35606;SDS011;21729;58.392;15.656;2023-07-16T04:17:27;6.50;;;4.95;;
35606;SDS011;21729;58.392;15.656;2023-07-16T04:19:55;5.68;;;4.40;;
35606;SDS011;21729;58.392;15.656;2023-07-16T04:22:23;7.03;;;4.40;;
35606;SDS011;21729;58.392;15.656;2023-07-16T04:24:50;6.22;;;4.38;;
35606;SDS011;21729;58.392;15.656;2023-07-16T04:27:17;6.43;;;4.50;;
35606;SDS011;21729;58.392;15.656;2023-07-16T04:29:44;7.82;;;4.45;;
35606;SDS011;21729;58.392;15.656;2023-07-16T04:32:11;7.38;;;4.70;;
35606;SDS011;21729;58.392;15.656;2023-07-16T04:34:39;6.55;;;4.82;;
35606;SDS011;21729;58.392;15.656;2023-07-16T04:37:06;6.55;;;4.35;;
35606;SDS011;21729;58.392;15.656;2023-07-16T04:39:34;6.07;;;4.60;;
35606;SDS011;21729;58.392;15.656;2023-07-16T04:42:02;7.25;;;4.78;;
35606;SDS011;21729;58.392;15.656;2023-07-16T04:44:29;7.47;;;4.85;;
35606;SDS011;21729;58.392;15.656;2023-07-16T04:46:56;6.35;;;4.40;;
35606;SDS011;21729;58.392;15.656;2023-07-16T04:49:23;6.60;;;4.70;;
35606;SDS011;21729;58.392;15.656;2023-07-16T04:51:50;7.75;;;4.88;;
35606;SDS011;21729;58.392;15.656;2023-07-16T04:54:17;7.63;;;4.75;;
35606;SDS011;21729;58.392;15.656;2023-07-16T04:56:46;6.27;;;4.47;;
35606;SDS011;21729;58.392;15.656;2023-07-16T04:59:12;7.40;;;4.70;;
35606;SDS011;21729;58.392;15.656;2023-07-16T05:01:40;5.20;;;4.53;;
35606;SDS011;21729;58.392;15.656;2023-07-16T05:04:07;6.37;;;4.83;;
35606;SDS011;21729;58.392;15.656;2023-07-16T05:06:34;5.80;;;4.22;;
35606;SDS011;21729;58.392;15.656;2023-07-16T05:09:01;7.95;;;4.68;;
35606;SDS011;21729;58.392;15.656;2023-07-16T05:11:28;5.57;;;4.37;;
35606;SDS011;21729;58.392;15.656;2023-07-16T05:13:57;5.70;;;4.10;;
35606;SDS011;21729;58.392;15.656;2023-07-16T05:16:24;7.72;;;4.60;;
35606;SDS011;21729;58.392;15.656;2023-07-16T05:18:51;6.32;;;4.65;;
35606;SDS011;21729;58.392;15.656;2023-07-16T05:21:18;6.45;;;4.40;;
35606;SDS011;21729;58.392;15.656;2023-07-16T05:23:45;7.17;;;4.93;;
35606;SDS011;21729;58.392;15.656;2023-07-16T05:26:13;6.87;;;4.70;;
35606;SDS011;21729;58.392;15.656;2023-07-16T05:28:40;7.57;;;4.85;;
35606;SDS011;21729;58.392;15.656;2023-07-16T05:31:08;7.68;;;4.63;;
35606;SDS011;21729;58.392;15.656;2023-07-16T05:33:35;6.82;;;4.57;;
35606;SDS011;21729;58.392;15.656;2023-07-16T05:36:02;7.07;;;4.65;;
35606;SDS011;21729;58.392;15.656;2023-07-16T05:38:30;8.48;;;4.80;;
35606;SDS011;21729;58.392;15.656;2023-07-16T05:40:59;5.20;;;4.70;;
35606;SDS011;21729;58.392;15.656;2023-07-16T05:43:28;8.30;;;5.03;;
35606;SDS011;21729;58.392;15.656;2023-07-16T05:45:55;7.13;;;4.75;;
35606;SDS011;21729;58.392;15.656;2023-07-16T05:48:23;6.82;;;4.75;;
35606;SDS011;21729;58.392;15.656;2023-07-16T05:50:51;8.25;;;4.68;;
35606;SDS011;21729;58.392;15.656;2023-07-16T05:53:18;8.00;;;5.10;;
35606;SDS011;21729;58.392;15.656;2023-07-16T05:55:45;6.70;;;4.90;;
35606;SDS011;21729;58.392;15.656;2023-07-16T05:58:14;6.27;;;4.27;;
35606;SDS011;21729;58.392;15.656;2023-07-16T06:00:42;5.35;;;4.57;;
35606;SDS011;21729;58.392;15.656;2023-07-16T06:03:09;7.20;;;4.90;;
35606;SDS011;21729;58.392;15.656;2023-07-16T06:05:37;6.32;;;4.40;;
35606;SDS011;21729;58.392;15.656;2023-07-16T06:08:04;7.88;;;4.72;;
35606;SDS011;21729;58.392;15.656;2023-07-16T06:10:33;7.67;;;4.53;;
35606;SDS011;21729;58.392;15.656;2023-07-16T06:13:00;6.35;;;4.60;;
35606;SDS011;21729;58.392;15.656;2023-07-16T06:15:28;6.18;;;4.47;;
35606;SDS011;21729;58.392;15.656;2023-07-16T06:17:55;5.80;;;4.57;;
35606;SDS011;21729;58.392;15.656;2023-07-16T06:20:22;7.72;;;4.85;;
35606;SDS011;21729;58.392;15.656;2023-07-16T06:22:50;8.05;;;4.57;;
35606;SDS011;21729;58.392;15.656;2023-07-16T06:25:18;6.10;;;4.43;;
35606;SDS011;21729;58.392;15.656;2023-07-16T06:27:45;5.70;;;4.10;;
35606;SDS011;21729;58.392;15.656;2023-07-16T06:30:12;5.90;;;4.47;;
35606;SDS011;21729;58.392;15.656;2023-07-16T06:32:39;7.63;;;4.97;;
35606;SDS011;21729;58.392;15.656;2023-07-16T06:35:06;10.18;;;5.88;;
35606;SDS011;21729;58.392;15.656;2023-07-16T06:37:34;11.90;;;5.87;;
35606;SDS011;21729;58.392;15.656;2023-07-16T06:40:03;8.23;;;5.00;;
35606;SDS011;21729;58.392;15.656;2023-07-16T06:42:31;5.53;;;4.70;;
35606;SDS011;21729;58.392;15.656;2023-07-16T06:44:58;8.95;;;4.78;;
35606;SDS011;21729;58.392;15.656;2023-07-16T06:47:25;6.37;;;4.70;;
35606;SDS011;21729;58.392;15.656;2023-07-16T06:49:52;6.57;;;4.68;;
35606;SDS011;21729;58.392;15.656;2023-07-16T06:52:19;6.40;;;4.53;;
35606;SDS011;21729;58.392;15.656;2023-07-16T06:54:46;6.82;;;4.68;;
35606;SDS011;21729;58.392;15.656;2023-07-16T06:57:15;5.23;;;4.00;;
35606;SDS011;21729;58.392;15.656;2023-07-16T06:59:42;4.88;;;4.30;;
35606;SDS011;21729;58.392;15.656;2023-07-16T07:02:10;5.03;;;3.95;;
35606;SDS011;21729;58.392;15.656;2023-07-16T07:04:38;7.32;;;4.30;;
35606;SDS011;21729;58.392;15.656;2023-07-16T07:07:05;6.82;;;4.10;;
35606;SDS011;21729;58.392;15.656;2023-07-16T07:09:33;5.87;;;4.40;;
35606;SDS011;21729;58.392;15.656;2023-07-16T07:12:00;4.88;;;4.38;;
35606;SDS011;21729;58.392;15.656;2023-07-16T07:14:28;6.63;;;4.30;;
35606;SDS011;21729;58.392;15.656;2023-07-16T07:16:57;4.80;;;4.10;;
35606;SDS011;21729;58.392;15.656;2023-07-16T07:19:24;4.50;;;4.10;;
35606;SDS011;21729;58.392;15.656;2023-07-16T07:21:51;5.20;;;4.32;;
35606;SDS011;21729;58.392;15.656;2023-07-16T07:24:18;4.43;;;3.88;;
35606;SDS011;21729;58.392;15.656;2023-07-16T07:26:46;5.57;;;4.18;;
35606;SDS011;21729;58.392;15.656;2023-07-16T07:29:13;5.05;;;3.85;;
35606;SDS011;21729;58.392;15.656;2023-07-16T07:31:41;5.43;;;4.00;;
35606;SDS011;21729;58.392;15.656;2023-07-16T07:34:08;4.13;;;3.65;;
35606;SDS011;21729;58.392;15.656;2023-07-16T07:36:35;4.70;;;3.60;;
35606;SDS011;21729;58.392;15.656;2023-07-16T07:39:02;3.85;;;3.45;;
35606;SDS011;21729;58.392;15.656;2023-07-16T07:41:31;3.65;;;3.35;;
35606;SDS011;21729;58.392;15.656;2023-07-16T07:43:58;5.13;;;3.50;;
35606;SDS011;21729;58.392;15.656;2023-07-16T07:46:25;3.37;;;3.07;;
35606;SDS011;21729;58.392;15.656;2023-07-16T07:48:53;3.75;;;3.03;;
35606;SDS011;21729;58.392;15.656;2023-07-16T07:51:21;2.97;;;2.78;;
35606;SDS011;21729;58.392;15.656;2023-07-16T07:53:48;2.80;;;2.60;;
35606;SDS011;21729;58.392;15.656;2023-07-16T07:56:15;2.92;;;2.63;;
35606;SDS011;21729;58.392;15.656;2023-07-16T07:58:42;3.17;;;2.60;;
35606;SDS011;21729;58.392;15.656;2023-07-16T08:01:09;2.65;;;2.45;;
35606;SDS011;21729;58.392;15.656;2023-07-16T08:03:36;2.83;;;2.53;;
35606;SDS011;21729;58.392;15.656;2023-07-16T08:06:05;3.25;;;2.30;;
35606;SDS011;21729;58.392;15.656;2023-07-16T08:08:32;2.45;;;2.25;;
35606;SDS011;21729;58.392;15.656;2023-07-16T08:10:59;2.60;;;2.30;;
35606;SDS011;21729;58.392;15.656;2023-07-16T08:13:26;2.78;;;2.58;;
35606;SDS011;21729;58.392;15.656;2023-07-16T08:15:53;3.50;;;2.40;;
35606;SDS011;21729;58.392;15.656;2023-07-16T08:18:20;3.08;;;2.50;;
35606;SDS011;21729;58.392;15.656;2023-07-16T08:20:47;3.03;;;2.55;;
35606;SDS011;21729;58.392;15.656;2023-07-16T08:23:16;3.45;;;2.40;;
35606;SDS011;21729;58.392;15.656;2023-07-16T08:25:43;3.45;;;2.80;;
35606;SDS011;21729;58.392;15.656;2023-07-16T08:28:11;3.60;;;2.40;;
35606;SDS011;21729;58.392;15.656;2023-07-16T08:30:38;3.60;;;2.40;;
35606;SDS011;21729;58.392;15.656;2023-07-16T08:33:05;2.85;;;2.58;;
35606;SDS011;21729;58.392;15.656;2023-07-16T08:35:32;3.88;;;2.70;;
35606;SDS011;21729;58.392;15.656;2023-07-16T08:37:59;3.65;;;2.72;;
35606;SDS011;21729;58.392;15.656;2023-07-16T08:40:28;3.03;;;2.73;;
35606;SDS011;21729;58.392;15.656;2023-07-16T08:42:55;4.07;;;2.70;;
35606;SDS011;21729;58.392;15.656;2023-07-16T08:45:24;3.10;;;2.80;;
35606;SDS011;21729;58.392;15.656;2023-07-16T08:47:54;3.85;;;2.85;;
35606;SDS011;21729;58.392;15.656;2023-07-16T08:50:22;3.22;;;2.83;;
35606;SDS011;21729;58.392;15.656;2023-07-16T08:52:51;3.30;;;3.00;;
35606;SDS011;21729;58.392;15.656;2023-07-16T08:55:20;3.92;;;3.10;;
35606;SDS011;21729;58.392;15.656;2023-07-16T08:57:49;5.88;;;2.90;;
35606;SDS011;21729;58.392;15.656;2023-07-16T09:00:17;4.10;;;3.20;;
35606;SDS011;21729;58.392;15.656;2023-07-16T09:02:44;3.17;;;2.92;;
35606;SDS011;21729;58.392;15.656;2023-07-16T09:05:12;2.90;;;2.60;;
35606;SDS011;21729;58.392;15.656;2023-07-16T09:07:41;3.08;;;2.80;;
35606;SDS011;21729;58.392;15.656;2023-07-16T09:10:11;2.88;;;2.33;;
35606;SDS011;21729;58.392;15.656;2023-07-16T09:12:41;2.40;;;2.20;;
35606;SDS011;21729;58.392;15.656;2023-07-16T09:15:10;3.08;;;2.17;;
35606;SDS011;21729;58.392;15.656;2023-07-16T09:17:37;2.40;;;1.90;;
35606;SDS011;21729;58.392;15.656;2023-07-16T09:20:05;2.83;;;1.95;;
35606;SDS011;21729;58.392;15.656;2023-07-16T09:22:34;2.72;;;2.00;;
35606;SDS011;21729;58.392;15.656;2023-07-16T09:25:01;2.15;;;1.95;;
35606;SDS011;21729;58.392;15.656;2023-07-16T09:27:28;2.00;;;1.60;;
35606;SDS011;21729;58.392;15.656;2023-07-16T09:29:55;3.15;;;1.80;;
35606;SDS011;21729;58.392;15.656;2023-07-16T09:32:33;2.70;;;2.10;;
35606;SDS011;21729;58.392;15.656;2023-07-16T09:35:00;2.05;;;1.73;;
35606;SDS011;21729;58.392;15.656;2023-07-16T09:37:32;2.67;;;1.75;;
35606;SDS011;21729;58.392;15.656;2023-07-16T09:40:00;4.40;;;1.80;;
35606;SDS011;21729;58.392;15.656;2023-07-16T09:42:30;1.83;;;1.60;;
35606;SDS011;21729;58.392;15.656;2023-07-16T09:44:59;1.65;;;1.50;;
35606;SDS011;21729;58.392;15.656;2023-07-16T09:47:28;2.10;;;1.80;;
35606;SDS011;21729;58.392;15.656;2023-07-16T09:49:57;2.83;;;1.70;;
35606;SDS011;21729;58.392;15.656;2023-07-16T09:52:24;1.63;;;1.50;;
35606;SDS011;21729;58.392;15.656;2023-07-16T09:54:54;2.72;;;1.33;;
35606;SDS011;21729;58.392;15.656;2023-07-16T09:57:22;1.75;;;1.40;;
35606;SDS011;21729;58.392;15.656;2023-07-16T09:59:52;1.75;;;1.63;;
35606;SDS011;21729;58.392;15.656;2023-07-16T10:02:20;1.52;;;1.33;;
35606;SDS011;21729;58.392;15.656;2023-07-16T10:04:47;1.70;;;1.30;;
35606;SDS011;21729;58.392;15.656;2023-07-16T10:07:20;1.50;;;1.40;;
35606;SDS011;21729;58.392;15.656;2023-07-16T10:09:52;1.30;;;1.15;;
35606;SDS011;21729;58.392;15.656;2023-07-16T10:12:21;2.30;;;1.30;;
35606;SDS011;21729;58.392;15.656;2023-07-16T10:14:50;1.30;;;1.20;;
35606;SDS011;21729;58.392;15.656;2023-07-16T10:17:19;1.42;;;1.33;;
35606;SDS011;21729;58.392;15.656;2023-07-16T10:19:50;1.75;;;1.38;;
35606;SDS011;21729;58.392;15.656;2023-07-16T10:22:32;1.33;;;1.23;;
35606;SDS011;21729;58.392;15.656;2023-07-16T10:25:03;1.33;;;1.23;;
35606;SDS011;21729;58.392;15.656;2023-07-16T10:27:48;1.55;;;1.10;;
35606;SDS011;21729;58.392;15.656;2023-07-16T10:30:16;1.60;;;1.40;;
35606;SDS011;21729;58.392;15.656;2023-07-16T10:32:44;1.40;;;1.30;;
35606;SDS011;21729;58.392;15.656;2023-07-16T10:35:12;1.50;;;1.33;;
35606;SDS011;21729;58.392;15.656;2023-07-16T10:37:40;2.88;;;1.50;;
35606;SDS011;21729;58.392;15.656;2023-07-16T10:40:09;3.03;;;1.60;;
35606;SDS011;21729;58.392;15.656;2023-07-16T10:42:39;1.80;;;1.48;;
35606;SDS011;21729;58.392;15.656;2023-07-16T10:45:07;2.65;;;1.50;;
35606;SDS011;21729;58.392;15.656;2023-07-16T10:47:35;2.42;;;1.52;;
35606;SDS011;21729;58.392;15.656;2023-07-16T10:50:04;1.73;;;1.60;;
35606;SDS011;21729;58.392;15.656;2023-07-16T10:52:32;1.88;;;1.33;;
35606;SDS011;21729;58.392;15.656;2023-07-16T10:55:01;2.22;;;1.50;;
35606;SDS011;21729;58.392;15.656;2023-07-16T10:57:29;1.50;;;1.40;;
35606;SDS011;21729;58.392;15.656;2023-07-16T10:59:57;2.22;;;1.42;;
35606;SDS011;21729;58.392;15.656;2023-07-16T11:02:25;3.17;;;1.50;;
35606;SDS011;21729;58.392;15.656;2023-07-16T11:04:53;1.60;;;1.50;;
35606;SDS011;21729;58.392;15.656;2023-07-16T11:07:22;3.58;;;1.60;;
35606;SDS011;21729;58.392;15.656;2023-07-16T11:09:50;1.63;;;1.42;;
35606;SDS011;21729;58.392;15.656;2023-07-16T11:12:20;1.60;;;1.50;;
35606;SDS011;21729;58.392;15.656;2023-07-16T11:14:49;2.10;;;1.50;;
35606;SDS011;21729;58.392;15.656;2023-07-16T11:17:18;2.08;;;1.63;;
35606;SDS011;21729;58.392;15.656;2023-07-16T11:19:48;2.42;;;1.55;;
35606;SDS011;21729;58.392;15.656;2023-07-16T11:22:16;2.90;;;1.50;;
35606;SDS011;21729;58.392;15.656;2023-07-16T11:24:44;2.70;;;1.60;;
35606;SDS011;21729;58.392;15.656;2023-07-16T11:27:13;2.13;;;1.50;;
35606;SDS011;21729;58.392;15.656;2023-07-16T11:29:46;2.15;;;1.70;;
35606;SDS011;21729;58.392;15.656;2023-07-16T11:32:13;2.20;;;1.50;;
35606;SDS011;21729;58.392;15.656;2023-07-16T11:34:51;1.40;;;1.30;;
35606;SDS011;21729;58.392;15.656;2023-07-16T11:37:19;2.72;;;1.35;;
35606;SDS011;21729;58.392;15.656;2023-07-16T11:39:46;1.90;;;1.40;;
35606;SDS011;21729;58.392;15.656;2023-07-16T11:42:13;2.35;;;1.60;;
35606;SDS011;21729;58.392;15.656;2023-07-16T11:44:41;2.63;;;1.50;;
35606;SDS011;21729;58.392;15.656;2023-07-16T11:47:09;2.03;;;1.60;;
35606;SDS011;21729;58.392;15.656;2023-07-16T11:49:36;2.63;;;1.65;;
35606;SDS011;21729;58.392;15.656;2023-07-16T11:52:04;2.70;;;1.50;;
35606;SDS011;21729;58.392;15.656;2023-07-16T11:54:31;2.33;;;1.40;;
35606;SDS011;21729;58.392;15.656;2023-07-16T11:56:58;3.17;;;1.70;;
35606;SDS011;21729;58.392;15.656;2023-07-16T11:59:25;2.80;;;1.38;;
35606;SDS011;21729;58.392;15.656;2023-07-16T12:01:52;2.70;;;1.65;;
35606;SDS011;21729;58.392;15.656;2023-07-16T12:04:21;2.25;;;1.80;;
35606;SDS011;21729;58.392;15.656;2023-07-16T12:06:49;2.10;;;1.50;;
35606;SDS011;21729;58.392;15.656;2023-07-16T12:09:16;1.80;;;1.55;;
35606;SDS011;21729;58.392;15.656;2023-07-16T12:11:43;2.53;;;1.63;;
35606;SDS011;21729;58.392;15.656;2023-07-16T12:14:10;2.40;;;1.55;;
35606;SDS011;21729;58.392;15.656;2023-07-16T12:16:38;2.10;;;1.70;;
35606;SDS011;21729;58.392;15.656;2023-07-16T12:19:05;2.60;;;1.60;;
35606;SDS011;21729;58.392;15.656;2023-07-16T12:21:35;3.10;;;1.70;;
35606;SDS011;21729;58.392;15.656;2023-07-16T12:24:02;2.65;;;1.60;;
35606;SDS011;21729;58.392;15.656;2023-07-16T12:26:29;2.67;;;1.70;;
35606;SDS011;21729;58.392;15.656;2023-07-16T12:28:56;2.90;;;1.67;;
35606;SDS011;21729;58.392;15.656;2023-07-16T12:31:23;2.37;;;1.40;;
35606;SDS011;21729;58.392;15.656;2023-07-16T12:33:51;2.60;;;1.50;;
35606;SDS011;21729;58.392;15.656;2023-07-16T12:36:18;2.42;;;1.50;;
35606;SDS011;21729;58.392;15.656;2023-07-16T12:38:46;3.70;;;1.80;;
35606;SDS011;21729;58.392;15.656;2023-07-16T12:41:13;1.90;;;1.48;;
35606;SDS011;21729;58.392;15.656;2023-07-16T12:43:42;1.67;;;1.25;;
35606;SDS011;21729;58.392;15.656;2023-07-16T12:46:09;2.08;;;1.60;;
35606;SDS011;21729;58.392;15.656;2023-07-16T12:48:36;2.78;;;1.55;;
35606;SDS011;21729;58.392;15.656;2023-07-16T12:51:03;1.92;;;1.55;;
35606;SDS011;21729;58.392;15.656;2023-07-16T12:53:30;2.30;;;1.70;;
35606;SDS011;21729;58.392;15.656;2023-07-16T12:55:59;2.90;;;1.80;;
35606;SDS011;21729;58.392;15.656;2023-07-16T12:58:26;3.08;;;1.70;;
35606;SDS011;21729;58.392;15.656;2023-07-16T13:00:53;3.42;;;1.73;;
35606;SDS011;21729;58.392;15.656;2023-07-16T13:03:19;2.92;;;1.90;;
35606;SDS011;21729;58.392;15.656;2023-07-16T13:05:46;2.75;;;1.70;;
35606;SDS011;21729;58.392;15.656;2023-07-16T13:08:14;3.50;;;1.60;;
35606;SDS011;21729;58.392;15.656;2023-07-16T13:10:42;2.95;;;1.70;;
35606;SDS011;21729;58.392;15.656;2023-07-16T13:13:12;3.83;;;1.70;;
35606;SDS011;21729;58.392;15.656;2023-07-16T13:15:39;2.40;;;1.65;;
35606;SDS011;21729;58.392;15.656;2023-07-16T13:18:08;6.88;;;2.03;;
35606;SDS011;21729;58.392;15.656;2023-07-16T13:20:36;4.00;;;2.30;;
35606;SDS011;21729;58.392;15.656;2023-07-16T13:23:03;3.72;;;1.88;;
35606;SDS011;21729;58.392;15.656;2023-07-16T13:25:31;4.25;;;1.85;;
35606;SDS011;21729;58.392;15.656;2023-07-16T13:27:58;3.90;;;1.80;;
35606;SDS011;21729;58.392;15.656;2023-07-16T13:30:26;5.32;;;1.98;;
35606;SDS011;21729;58.392;15.656;2023-07-16T13:32:53;3.00;;;1.77;;
35606;SDS011;21729;58.392;15.656;2023-07-16T13:35:21;4.63;;;2.05;;
35606;SDS011;21729;58.392;15.656;2023-07-16T13:37:48;3.80;;;1.75;;
35606;SDS011;21729;58.392;15.656;2023-07-16T13:40:15;2.65;;;1.80;;
35606;SDS011;21729;58.392;15.656;2023-07-16T13:42:45;3.85;;;1.90;;
35606;SDS011;21729;58.392;15.656;2023-07-16T13:45:12;5.43;;;1.80;;
35606;SDS011;21729;58.392;15.656;2023-07-16T13:47:41;4.57;;;1.77;;
35606;SDS011;21729;58.392;15.656;2023-07-16T13:50:09;3.70;;;1.88;;
35606;SDS011;21729;58.392;15.656;2023-07-16T13:52:36;5.32;;;1.80;;
35606;SDS011;21729;58.392;15.656;2023-07-16T13:55:03;3.65;;;1.83;;
35606;SDS011;21729;58.392;15.656;2023-07-16T13:57:31;5.80;;;2.10;;
35606;SDS011;21729;58.392;15.656;2023-07-16T13:59:58;3.90;;;2.10;;
35606;SDS011;21729;58.392;15.656;2023-07-16T14:02:26;7.38;;;2.30;;
35606;SDS011;21729;58.392;15.656;2023-07-16T14:04:54;3.40;;;2.00;;
35606;SDS011;21729;58.392;15.656;2023-07-16T14:07:21;3.95;;;2.05;;
35606;SDS011;21729;58.392;15.656;2023-07-16T14:09:49;4.40;;;2.03;;
35606;SDS011;21729;58.392;15.656;2023-07-16T14:12:16;3.22;;;1.92;;
35606;SDS011;21729;58.392;15.656;2023-07-16T14:14:43;4.73;;;1.90;;
35606;SDS011;21729;58.392;15.656;2023-07-16T14:17:10;4.35;;;2.00;;
35606;SDS011;21729;58.392;15.656;2023-07-16T14:19:37;4.00;;;1.80;;
35606;SDS011;21729;58.392;15.656;2023-07-16T14:22:06;5.88;;;2.30;;
35606;SDS011;21729;58.392;15.656;2023-07-16T14:24:36;6.90;;;3.10;;
35606;SDS011;21729;58.392;15.656;2023-07-16T14:27:05;5.05;;;2.10;;
35606;SDS011;21729;58.392;15.656;2023-07-16T14:29:33;4.75;;;1.90;;
35606;SDS011;21729;58.392;15.656;2023-07-16T14:32:00;3.73;;;1.87;;
35606;SDS011;21729;58.392;15.656;2023-07-16T14:34:27;2.70;;;2.00;;
35606;SDS011;21729;58.392;15.656;2023-07-16T14:36:55;4.27;;;1.90;;
35606;SDS011;21729;58.392;15.656;2023-07-16T14:39:23;5.00;;;2.03;;
35606;SDS011;21729;58.392;15.656;2023-07-16T14:41:51;4.80;;;2.00;;
35606;SDS011;21729;58.392;15.656;2023-07-16T14:44:18;4.30;;;2.10;;
35606;SDS011;21729;58.392;15.656;2023-07-16T14:46:45;3.22;;;2.20;;